Gulf Venture — WDI8681 — position and weather

sailwx.info

Track history (hours):
 
Tides and Currents Weather Stations Pressure Air Temp Water Temp Dewpoint Dewpoint Depression Visibility Wind Speed Wind Dir Waves Ship Positions

Gulf Venture

Owner: Harley Marine Services, Inc, Seattle, WA. More information available from US FCC via Universal Licensing System and Coast Guard Vessel Documentation Center.

Last reported at 2018-Feb-23 02:40 UTC. Time now 2018-Feb-23 10:40 UTC.
Position N 40°35' W 074°13'.

Length 145 m.

Type: Towing. MMSI: 367741080.

Date/timePositionNaut miles runAvg speedWind from/ knotsBaromVisibWave heightAir tempDewpointWater temp
2018-Feb-23 02:40N 40°35' W 074°13'0 0.0
2018-Feb-23 02:30N 40°35' W 074°13'0 0.0
2018-Feb-23 01:59N 40°35' W 074°13'0 0.0
2018-Feb-23 01:30N 40°35' W 074°13'0 0.0
2018-Feb-23 00:51N 40°35' W 074°13'1 3.4
2018-Feb-23 00:30N 40°36' W 074°12'3 5.8
2018-Feb-23 00:00N 40°39' W 074°11'1 1.9
2018-Feb-22 23:30N 40°38' W 074°09'0 0.0
2018-Feb-22 23:00N 40°38' W 074°09'0 0.0
2018-Feb-22 22:28N 40°38' W 074°09'0 0.0
2018-Feb-22 21:58N 40°38' W 074°09'0 0.0
2018-Feb-22 21:28N 40°38' W 074°09'0 0.0
2018-Feb-22 20:58N 40°38' W 074°10'0 0.0
2018-Feb-22 20:28N 40°38' W 074°09'0 0.0
2018-Feb-22 19:58N 40°38' W 074°09'0 0.0
2018-Feb-22 19:28N 40°38' W 074°09'0 0.0
2018-Feb-22 18:58N 40°38' W 074°09'0 0.0
2018-Feb-22 18:28N 40°38' W 074°09'0 0.0
2018-Feb-22 17:52N 40°38' W 074°09'0 0.0
2018-Feb-22 17:28N 40°38' W 074°09'0 0.0
2018-Feb-22 16:58N 40°38' W 074°09'0 0.0
2018-Feb-22 16:22N 40°38' W 074°09'0 0.0
2018-Feb-22 15:58N 40°38' W 074°09'0 0.0
2018-Feb-22 15:28N 40°38' W 074°09'0 0.0
2018-Feb-22 14:58N 40°38' W 074°09'0 0.0
2018-Feb-22 14:25N 40°38' W 074°09'0 0.0
2018-Feb-22 13:58N 40°38' W 074°09'0 0.0
2018-Feb-22 13:22N 40°38' W 074°09'0 0.0
2018-Feb-22 12:55N 40°38' W 074°09'0 0.0
2018-Feb-22 12:25N 40°38' W 074°09'0 0.0
2018-Feb-22 12:00N 40°38' W 074°09'0 0.0
2018-Feb-22 11:30N 40°38' W 074°09'0 0.0
2018-Feb-22 11:00N 40°38' W 074°09'0 0.0
2018-Feb-22 10:30N 40°38' W 074°09'0 0.0
2018-Feb-22 09:59N 40°38' W 074°09'0 0.0
2018-Feb-22 09:29N 40°38' W 074°09'0 0.0
2018-Feb-22 08:59N 40°38' W 074°09'0 0.0
2018-Feb-22 08:26N 40°38' W 074°09'0 0.0
2018-Feb-22 07:59N 40°38' W 074°09'0 0.0
2018-Feb-22 07:29N 40°38' W 074°09'0 0.0
2018-Feb-22 06:59N 40°38' W 074°09'0 0.0
2018-Feb-22 06:29N 40°38' W 074°09'0 0.0
2018-Feb-22 05:56N 40°38' W 074°09'0 0.0
2018-Feb-22 05:26N 40°38' W 074°09'0 0.0
2018-Feb-22 04:59N 40°38' W 074°09'0 0.0
2018-Feb-22 04:26N 40°38' W 074°09'0 0.0
2018-Feb-22 03:59N 40°38' W 074°09'0 0.0
2018-Feb-22 03:26N 40°38' W 074°09'0 0.0
2018-Feb-22 02:59N 40°38' W 074°09'0 0.0
2018-Feb-22 02:29N 40°38' W 074°09'0 0.0
2018-Feb-22 01:59N 40°38' W 074°09'0 0.0
2018-Feb-22 01:29N 40°38' W 074°09'0 0.0
2018-Feb-22 00:59N 40°38' W 074°09'0 0.0
2018-Feb-22 00:26N 40°38' W 074°09'0 0.0
2018-Feb-21 23:59N 40°38' W 074°09'0 0.0
2018-Feb-21 23:26N 40°38' W 074°10'0 0.0
2018-Feb-21 22:59N 40°38' W 074°09'0 0.2
2018-Feb-21 22:29N 40°38' W 074°09'2 4.5
2018-Feb-21 22:00N 40°39' W 074°07'3 5.5
2018-Feb-21 21:30N 40°40' W 074°03'5 9.7
2018-Feb-21 21:00N 40°44' W 074°01'510.6
2018-Feb-21 20:30N 40°49' W 073°58'5 9.8
2018-Feb-21 19:59N 40°54' W 073°55'3 5.1
2018-Feb-21 19:24N 40°57' W 073°55'0 0.0
2018-Feb-21 18:51N 40°57' W 073°55'0 0.1
2018-Feb-21 18:21N 40°57' W 073°55'0 0.1
2018-Feb-21 17:57N 40°57' W 073°55'0 0.0
2018-Feb-21 17:12N 40°57' W 073°55'0 0.1
2018-Feb-21 16:45N 40°57' W 073°55'0 0.1
2018-Feb-21 16:21N 40°57' W 073°55'0 0.0
2018-Feb-21 16:00N 40°57' W 073°55'0 0.1
2018-Feb-21 15:18N 40°57' W 073°55'0 0.5
2018-Feb-21 14:51N 40°56' W 073°55'0 0.1
2018-Feb-21 14:30N 40°56' W 073°55'0 0.0
2018-Feb-21 13:39N 40°56' W 073°55'0 0.0
2018-Feb-21 13:09N 40°56' W 073°55'0 0.0
2018-Feb-21 13:00N 40°56' W 073°55'0 0.0
2018-Feb-21 12:30N 40°56' W 073°55'0 0.0
2018-Feb-21 11:54N 40°56' W 073°55'0 0.0
2018-Feb-21 11:15N 40°56' W 073°55'0 0.0
2018-Feb-21 11:00N 40°56' W 073°55'0 0.0
2018-Feb-21 10:27N 40°56' W 073°55'0 0.0
2018-Feb-21 09:54N 40°56' W 073°55'0 0.0
2018-Feb-21 09:30N 40°56' W 073°55'0 0.0
2018-Feb-21 09:00N 40°56' W 073°55'0 0.3
2018-Feb-21 08:27N 40°57' W 073°55'0 0.1
2018-Feb-21 06:51N 40°57' W 073°55'0 0.0
2018-Feb-21 06:24N 40°57' W 073°55'0 0.1
2018-Feb-21 05:51N 40°57' W 073°55'0 0.0
2018-Feb-21 05:21N 40°57' W 073°55'0 0.0
2018-Feb-21 04:18N 40°57' W 073°55'0 0.0
2018-Feb-21 03:54N 40°57' W 073°55'0 0.1
2018-Feb-21 03:30N 40°57' W 073°55'0 0.1
2018-Feb-21 02:57N 40°57' W 073°55'0 0.3
2018-Feb-21 02:30N 40°56' W 073°55'0 0.1
2018-Feb-21 01:54N 40°56' W 073°55'0 0.0
2018-Feb-21 01:30N 40°56' W 073°55'0 0.0
2018-Feb-21 00:30N 40°56' W 073°55'0 0.0
2018-Feb-20 23:57N 40°56' W 073°55'0 0.0
2018-Feb-20 23:24N 40°56' W 073°55'0 0.0
2018-Feb-20 22:48N 40°56' W 073°55'0 0.0
2018-Feb-20 22:27N 40°56' W 073°55'0 0.0
2018-Feb-20 21:54N 40°56' W 073°55'0 0.0
2018-Feb-20 21:27N 40°56' W 073°55'0 0.0
2018-Feb-20 20:54N 40°56' W 073°55'0 0.2
2018-Feb-20 20:24N 40°57' W 073°55'0 0.2
2018-Feb-20 20:00N 40°57' W 073°55'0 0.1
2018-Feb-20 19:27N 40°57' W 073°55'0 0.0
2018-Feb-20 18:57N 40°57' W 073°55'0 0.0
2018-Feb-20 17:54N 40°57' W 073°55'0 0.1
2018-Feb-20 17:15N 40°57' W 073°55'0 0.0
2018-Feb-20 15:39N 40°57' W 073°55'0 0.1
2018-Feb-20 14:15N 40°57' W 073°55'0 0.1
2018-Feb-20 11:42N 40°56' W 073°55'0 0.0
2018-Feb-20 11:30N 40°56' W 073°55'0 0.0
2018-Feb-20 10:51N 40°56' W 073°55'0 0.0
2018-Feb-20 09:54N 40°56' W 073°55'0 0.0
2018-Feb-20 09:30N 40°56' W 073°55'0 0.0
2018-Feb-20 09:00N 40°56' W 073°55'0 0.0
2018-Feb-20 08:18N 40°56' W 073°55'0 0.0
2018-Feb-20 08:00N 40°56' W 073°55'0 0.0
2018-Feb-20 02:39N 40°57' W 073°55'0 0.3
2018-Feb-20 02:15N 40°56' W 073°55'0 0.1
2018-Feb-20 02:00N 40°56' W 073°55'0 0.1
2018-Feb-20 01:24N 40°56' W 073°55'0 0.0
2018-Feb-20 00:48N 40°56' W 073°55'0 0.0
2018-Feb-20 00:30N 40°56' W 073°55'0 0.0
2018-Feb-20 00:00N 40°56' W 073°55'0 0.0
2018-Feb-19 23:30N 40°56' W 073°55'0 0.0
2018-Feb-19 23:00N 40°56' W 073°55'0 0.0
2018-Feb-19 22:12N 40°56' W 073°55'0 0.0
2018-Feb-19 21:25N 40°56' W 073°55'0 0.0
2018-Feb-19 20:58N 40°56' W 073°55'0 0.0
2018-Feb-19 20:25N 40°56' W 073°55'0 0.0
2018-Feb-19 19:58N 40°56' W 073°55'0 0.3
2018-Feb-19 18:58N 40°57' W 073°55'0 0.0
2018-Feb-19 16:55N 40°57' W 073°55'0 0.1
2018-Feb-19 16:28N 40°57' W 073°55'0 0.0
2018-Feb-19 15:58N 40°57' W 073°55'0 0.0
2018-Feb-19 14:07N 40°57' W 073°55'0 0.4
2018-Feb-19 13:49N 40°57' W 073°55'0 0.2
2018-Feb-19 13:22N 40°56' W 073°55'0 0.1
2018-Feb-19 12:58N 40°56' W 073°55'0 0.0
2018-Feb-19 12:28N 40°56' W 073°55'0 0.0
2018-Feb-19 11:52N 40°56' W 073°55'0 0.0
2018-Feb-19 11:28N 40°56' W 073°55'0 0.0
2018-Feb-19 10:58N 40°56' W 073°55'0 0.0
2018-Feb-19 10:28N 40°56' W 073°55'0 0.0
2018-Feb-19 09:55N 40°56' W 073°55'0 0.0
2018-Feb-19 09:28N 40°56' W 073°55'0 0.0
2018-Feb-19 08:58N 40°56' W 073°55'0 0.0
2018-Feb-19 08:25N 40°56' W 073°55'0 0.0
2018-Feb-19 07:58N 40°56' W 073°55'0 0.2
2018-Feb-19 07:26N 40°57' W 073°55'0 0.3
2018-Feb-19 06:59N 40°57' W 073°55'0 0.1
2018-Feb-19 06:17N 40°57' W 073°55'0 0.0
2018-Feb-19 05:53N 40°57' W 073°55'0 0.0
2018-Feb-19 05:29N 40°57' W 073°55'0 0.0
2018-Feb-19 04:59N 40°57' W 073°55'0 0.0
2018-Feb-19 04:11N 40°57' W 073°55'0 0.0
2018-Feb-19 03:59N 40°57' W 073°55'0 0.0
2018-Feb-19 02:53N 40°57' W 073°55'0 0.0
2018-Feb-19 01:53N 40°57' W 073°55'0 0.0
2018-Feb-19 01:29N 40°57' W 073°55'0 0.2
2018-Feb-19 00:59N 40°57' W 073°55'0 0.2
2018-Feb-19 00:29N 40°56' W 073°55'0 0.1
2018-Feb-18 23:56N 40°56' W 073°55'0 0.0
2018-Feb-18 23:29N 40°56' W 073°55'0 0.0
2018-Feb-18 22:56N 40°56' W 073°55'0 0.0
2018-Feb-18 22:29N 40°56' W 073°55'0 0.0
2018-Feb-18 21:59N 40°56' W 073°55'0 0.0
2018-Feb-18 21:29N 40°56' W 073°55'0 0.0
2018-Feb-18 20:59N 40°56' W 073°55'0 0.0
2018-Feb-18 20:26N 40°56' W 073°55'0 0.0
2018-Feb-18 20:00N 40°56' W 073°55'0 0.0
2018-Feb-18 19:30N 40°56' W 073°55'0 0.0
2018-Feb-18 18:57N 40°56' W 073°55'0 0.0
2018-Feb-18 18:28N 40°56' W 073°55'0 0.1
2018-Feb-18 17:56N 40°56' W 073°55'0 0.2
2018-Feb-18 17:26N 40°57' W 073°55'0 0.1
2018-Feb-18 16:59N 40°57' W 073°55'0 0.1
2018-Feb-18 16:25N 40°57' W 073°55'0 0.0
2018-Feb-18 15:52N 40°57' W 073°55'0 0.0
2018-Feb-18 15:28N 40°57' W 073°55'0 0.3
2018-Feb-18 14:58N 40°56' W 073°55'0 0.1
2018-Feb-18 14:25N 40°56' W 073°55'0 0.2
2018-Feb-18 13:58N 40°56' W 073°55'0 0.2
2018-Feb-18 13:28N 40°56' W 073°55'0 0.1
2018-Feb-18 12:43N 40°56' W 073°55'0 0.1
2018-Feb-18 12:25N 40°56' W 073°55'0 0.0
2018-Feb-18 11:58N 40°56' W 073°55'0 0.0
2018-Feb-18 11:19N 40°56' W 073°55'0 0.0
2018-Feb-18 10:55N 40°56' W 073°55'0 0.0
2018-Feb-18 10:28N 40°56' W 073°55'0 0.0
2018-Feb-18 09:58N 40°56' W 073°55'0 0.0
2018-Feb-18 09:28N 40°56' W 073°55'0 0.0
2018-Feb-18 08:58N 40°56' W 073°55'0 0.0
2018-Feb-18 08:28N 40°56' W 073°55'0 0.0
2018-Feb-18 07:52N 40°56' W 073°55'0 0.0
2018-Feb-18 07:28N 40°56' W 073°55'0 0.0
2018-Feb-18 06:58N 40°56' W 073°55'0 0.1
2018-Feb-18 06:25N 40°56' W 073°55'0 0.2
2018-Feb-18 05:58N 40°56' W 073°55'0 0.2
2018-Feb-18 05:19N 40°57' W 073°55'0 0.2
2018-Feb-18 04:58N 40°57' W 073°55'0 0.0
2018-Feb-18 04:16N 40°57' W 073°55'0 0.0
2018-Feb-18 03:46N 40°57' W 073°55'0 0.0
2018-Feb-18 03:28N 40°57' W 073°55'0 0.0
2018-Feb-18 02:52N 40°57' W 073°55'0 0.0
2018-Feb-18 02:28N 40°57' W 073°55'0 0.0
2018-Feb-18 01:58N 40°57' W 073°55'0 0.2
2018-Feb-18 01:28N 40°57' W 073°55'0 0.0
2018-Feb-18 00:58N 40°57' W 073°55'0 0.1
2018-Feb-17 23:31N 40°56' W 073°55'0 0.2
2018-Feb-17 23:28N 40°56' W 073°55'0 0.1
2018-Feb-17 22:58N 40°56' W 073°55'0 0.0
2018-Feb-17 22:28N 40°56' W 073°55'0 0.0
2018-Feb-17 21:58N 40°56' W 073°55'0 0.0
2018-Feb-17 21:28N 40°56' W 073°55'0 0.1
2018-Feb-17 20:58N 40°56' W 073°55'0 0.1
2018-Feb-17 20:28N 40°56' W 073°55'0 0.1
2018-Feb-17 19:58N 40°56' W 073°55'0 0.2
2018-Feb-17 19:22N 40°57' W 073°55'0 0.0
2018-Feb-17 16:55N 40°57' W 073°55'0 0.0
2018-Feb-17 14:19N 40°57' W 073°55'0 0.0
2018-Feb-17 13:58N 40°57' W 073°55'0 0.1
2018-Feb-17 13:25N 40°57' W 073°55'0 0.2
2018-Feb-17 12:52N 40°57' W 073°55'0 0.1
2018-Feb-17 12:13N 40°57' W 073°55'0 0.2
2018-Feb-17 11:58N 40°57' W 073°55'0 0.1
2018-Feb-17 11:19N 40°56' W 073°55'0 0.2
2018-Feb-17 10:58N 40°56' W 073°55'0 0.1
2018-Feb-17 10:28N 40°56' W 073°55'0 0.0
2018-Feb-17 09:52N 40°56' W 073°55'0 0.0
2018-Feb-17 09:28N 40°56' W 073°55'0 0.0
2018-Feb-17 08:58N 40°56' W 073°55'0 0.0
2018-Feb-17 08:28N 40°56' W 073°55'0 0.0
2018-Feb-17 07:58N 40°56' W 073°55'0 0.0
2018-Feb-17 07:25N 40°56' W 073°55'0 0.0
2018-Feb-17 06:55N 40°56' W 073°55'0 0.0
2018-Feb-17 06:25N 40°56' W 073°55'0 0.0
2018-Feb-17 05:58N 40°56' W 073°55'0 0.1
2018-Feb-17 05:25N 40°56' W 073°55'0 0.1
2018-Feb-17 04:55N 40°56' W 073°55'0 0.2
2018-Feb-17 04:28N 40°56' W 073°55'0 0.1
2018-Feb-17 03:58N 40°56' W 073°55'0 0.2
2018-Feb-17 03:28N 40°57' W 073°55'0 0.0
2018-Feb-17 02:58N 40°57' W 073°55'0 0.2
2018-Feb-17 02:28N 40°56' W 073°55'0 0.1
2018-Feb-17 01:55N 40°56' W 073°55'0 0.0
2018-Feb-17 01:25N 40°56' W 073°55'0 0.1
2018-Feb-17 00:55N 40°56' W 073°55'0 0.1
2018-Feb-17 00:28N 40°56' W 073°55'0 0.0
2018-Feb-16 23:49N 40°56' W 073°55'0 0.0
2018-Feb-16 23:16N 40°56' W 073°55'0 0.1
2018-Feb-16 22:55N 40°56' W 073°55'0 0.0
2018-Feb-16 22:25N 40°56' W 073°55'0 0.0
2018-Feb-16 21:55N 40°56' W 073°55'0 0.0
2018-Feb-16 21:22N 40°56' W 073°55'0 0.1
2018-Feb-16 20:55N 40°56' W 073°55'0 0.0
2018-Feb-16 20:28N 40°56' W 073°55'0 0.0
2018-Feb-16 19:55N 40°56' W 073°55'0 0.0
2018-Feb-16 19:28N 40°56' W 073°55'0 0.1
2018-Feb-16 18:55N 40°56' W 073°55'0 0.0
2018-Feb-16 18:22N 40°56' W 073°55'0 0.1
2018-Feb-16 17:58N 40°56' W 073°55'0 0.4
2018-Feb-16 17:22N 40°57' W 073°55'0 0.1
2018-Feb-16 16:58N 40°57' W 073°55'0 0.0
2018-Feb-16 13:52N 40°57' W 073°55'0 0.0
2018-Feb-16 13:28N 40°57' W 073°55'0 0.1
2018-Feb-16 11:22N 40°56' W 073°55'0 0.0
2018-Feb-16 10:55N 40°56' W 073°55'0 0.0
2018-Feb-16 10:28N 40°56' W 073°55'0 0.0
2018-Feb-16 09:58N 40°56' W 073°55'0 0.0
2018-Feb-16 09:28N 40°56' W 073°55'0 0.0
2018-Feb-16 08:58N 40°56' W 073°55'0 0.0
2018-Feb-16 08:28N 40°56' W 073°55'0 0.0
2018-Feb-16 07:55N 40°56' W 073°55'0 0.0
2018-Feb-16 07:28N 40°56' W 073°55'0 0.1
2018-Feb-16 06:55N 40°56' W 073°55'0 0.0
2018-Feb-16 06:25N 40°56' W 073°55'0 0.0
2018-Feb-16 05:58N 40°56' W 073°55'0 0.2
2018-Feb-16 05:25N 40°57' W 073°55'0 0.2
2018-Feb-16 04:46N 40°57' W 073°55'0 0.1
2018-Feb-16 04:28N 40°57' W 073°55'0 0.0
2018-Feb-16 03:58N 40°57' W 073°55'0 0.0
2018-Feb-16 03:22N 40°57' W 073°55'0 0.0
2018-Feb-16 02:58N 40°57' W 073°55'0 0.0
2018-Feb-16 02:25N 40°57' W 073°55'0 0.0
2018-Feb-16 01:58N 40°57' W 073°55'0 0.0
2018-Feb-16 01:13N 40°57' W 073°55'0 0.1
2018-Feb-16 00:49N 40°57' W 073°55'0 0.5
2018-Feb-16 00:28N 40°56' W 073°55'0 0.1
2018-Feb-15 23:58N 40°56' W 073°55'0 0.0
2018-Feb-15 23:10N 40°56' W 073°55'0 0.1
2018-Feb-15 22:58N 40°56' W 073°55'0 0.0
2018-Feb-15 22:28N 40°56' W 073°55'0 0.0
2018-Feb-15 21:58N 40°56' W 073°55'0 0.0
2018-Feb-15 21:28N 40°56' W 073°55'0 0.0
2018-Feb-15 20:58N 40°56' W 073°55'0 0.0
2018-Feb-15 20:28N 40°56' W 073°55'0 0.0
2018-Feb-15 19:58N 40°56' W 073°55'0 0.0
2018-Feb-15 19:28N 40°56' W 073°55'0 0.0
2018-Feb-15 18:58N 40°56' W 073°55'0 0.0
2018-Feb-15 18:16N 40°56' W 073°55'0 0.1
2018-Feb-15 17:55N 40°56' W 073°55'0 0.1
2018-Feb-15 17:28N 40°56' W 073°55'0 0.1
2018-Feb-15 16:10N 40°57' W 073°55'0 0.0
2018-Feb-15 15:52N 40°57' W 073°55'0 0.0
2018-Feb-15 12:16N 40°57' W 073°55'0 0.0
2018-Feb-15 11:46N 40°57' W 073°55'0 0.3
2018-Feb-15 11:13N 40°57' W 073°55'0 0.2
2018-Feb-15 10:55N 40°56' W 073°55'0 0.1
2018-Feb-15 10:25N 40°56' W 073°55'0 0.0
2018-Feb-15 09:58N 40°56' W 073°55'0 0.0
2018-Feb-15 09:25N 40°56' W 073°55'0 0.0
2018-Feb-15 08:55N 40°56' W 073°55'0 0.0
2018-Feb-15 08:25N 40°56' W 073°55'0 0.0
2018-Feb-15 07:55N 40°56' W 073°55'0 0.0
2018-Feb-15 07:25N 40°56' W 073°55'0 0.0
2018-Feb-15 06:55N 40°56' W 073°55'0 0.0
2018-Feb-15 06:13N 40°56' W 073°55'0 0.1
2018-Feb-15 05:46N 40°56' W 073°55'0 0.1
2018-Feb-15 05:22N 40°56' W 073°55'0 0.2
2018-Feb-15 04:55N 40°57' W 073°55'0 0.2
2018-Feb-15 04:13N 40°57' W 073°55'0 0.1
2018-Feb-15 03:55N 40°57' W 073°55'0 0.0
2018-Feb-15 03:25N 40°57' W 073°55'0 0.0
2018-Feb-15 01:01N 40°57' W 073°55'0 0.0
2018-Feb-15 00:37N 40°57' W 073°55'0 0.0
2018-Feb-15 00:28N 40°57' W 073°55'0 0.3
2018-Feb-14 23:55N 40°57' W 073°55'0 0.2
2018-Feb-14 23:22N 40°56' W 073°55'0 0.1
2018-Feb-14 22:46N 40°56' W 073°55'0 0.0
2018-Feb-14 22:16N 40°56' W 073°55'0 0.0
2018-Feb-14 21:52N 40°56' W 073°55'0 0.0
2018-Feb-14 21:28N 40°56' W 073°55'0 0.0
2018-Feb-14 20:55N 40°56' W 073°55'0 0.0
2018-Feb-14 20:28N 40°56' W 073°55'0 0.0
2018-Feb-14 19:52N 40°56' W 073°55'0 0.0
2018-Feb-14 19:28N 40°56' W 073°55'0 0.1
2018-Feb-14 18:54N 40°56' W 073°55'3 6.9
2018-Feb-14 18:30N 40°54' W 073°55'4 8.3
2018-Feb-14 18:00N 40°50' W 073°58'1 2.0
2018-Feb-14 17:29N 40°49' W 073°58'0 0.1
2018-Feb-14 16:59N 40°49' W 073°58'0 0.2
2018-Feb-14 16:29N 40°49' W 073°58'0 0.2
2018-Feb-14 15:59N 40°49' W 073°58'0 0.1
2018-Feb-14 15:29N 40°49' W 073°58'0 0.0
2018-Feb-14 14:59N 40°49' W 073°58'0 0.0
2018-Feb-14 14:26N 40°49' W 073°58'0 0.0
2018-Feb-14 13:59N 40°49' W 073°58'0 0.0
2018-Feb-14 13:29N 40°49' W 073°58'0 0.0
2018-Feb-14 12:59N 40°49' W 073°58'0 0.1
2018-Feb-14 12:29N 40°49' W 073°58'0 0.0
2018-Feb-14 11:59N 40°49' W 073°58'0 0.0
2018-Feb-14 11:26N 40°49' W 073°58'0 0.0
2018-Feb-14 10:59N 40°49' W 073°58'0 0.0
2018-Feb-14 10:29N 40°49' W 073°58'0 0.3
2018-Feb-14 09:59N 40°49' W 073°58'0 0.1
2018-Feb-14 09:29N 40°49' W 073°58'0 0.0
2018-Feb-14 08:59N 40°49' W 073°58'0 0.0
2018-Feb-14 08:29N 40°49' W 073°58'0 0.0
2018-Feb-14 07:59N 40°49' W 073°58'0 0.0
2018-Feb-14 07:29N 40°49' W 073°58'0 0.0
2018-Feb-14 06:59N 40°49' W 073°58'0 0.0
2018-Feb-14 06:29N 40°49' W 073°58'0 0.0
2018-Feb-14 05:59N 40°49' W 073°58'0 0.1
2018-Feb-14 05:29N 40°49' W 073°58'0 0.1
2018-Feb-14 04:59N 40°49' W 073°58'0 0.0
2018-Feb-14 04:29N 40°49' W 073°58'0 0.0
2018-Feb-14 03:59N 40°49' W 073°58'0 0.3
2018-Feb-14 03:30N 40°49' W 073°58'3 6.7
2018-Feb-14 03:00N 40°46' W 074°00'4 7.8
2018-Feb-14 02:30N 40°42' W 074°00'5 8.9
2018-Feb-14 02:00N 40°46' W 073°57'4 7.9
2018-Feb-14 01:30N 40°48' W 073°53'4 7.8
2018-Feb-14 01:00N 40°48' W 073°47'610.9
2018-Feb-14 00:30N 40°53' W 073°44'41 3.6
2018-Feb-13 13:08N 41°12' W 072°55'  
Track history (hours):
 
Tides and Currents Weather Stations Pressure Air Temp Water Temp Dewpoint Dewpoint Depression Visibility Wind Speed Wind Dir Waves Ship Positions

Gulf Venture

Owner: Harley Marine Services, Inc, Seattle, WA. More information available from US FCC via Universal Licensing System and Coast Guard Vessel Documentation Center.

Last reported at 2018-Feb-23 02:40 UTC. Time now 2018-Feb-23 10:40 UTC.
Position N 40°35' W 074°13'.

Length 145 m.

Type: Towing. MMSI: 367741080.

Date/timePositionNaut miles runAvg speedWind from/ knotsBaromVisibWave heightAir tempDewpointWater temp
2018-Feb-23 02:40N 40°35' W 074°13'0 0.0
2018-Feb-23 02:30N 40°35' W 074°13'0 0.0
2018-Feb-23 01:59N 40°35' W 074°13'0 0.0
2018-Feb-23 01:30N 40°35' W 074°13'0 0.0
2018-Feb-23 00:51N 40°35' W 074°13'1 3.4
2018-Feb-23 00:30N 40°36' W 074°12'3 5.8
2018-Feb-23 00:00N 40°39' W 074°11'1 1.9
2018-Feb-22 23:30N 40°38' W 074°09'0 0.0
2018-Feb-22 23:00N 40°38' W 074°09'0 0.0
2018-Feb-22 22:28N 40°38' W 074°09'0 0.0
2018-Feb-22 21:58N 40°38' W 074°09'0 0.0
2018-Feb-22 21:28N 40°38' W 074°09'0 0.0
2018-Feb-22 20:58N 40°38' W 074°10'0 0.0
2018-Feb-22 20:28N 40°38' W 074°09'0 0.0
2018-Feb-22 19:58N 40°38' W 074°09'0 0.0
2018-Feb-22 19:28N 40°38' W 074°09'0 0.0
2018-Feb-22 18:58N 40°38' W 074°09'0 0.0
2018-Feb-22 18:28N 40°38' W 074°09'0 0.0
2018-Feb-22 17:52N 40°38' W 074°09'0 0.0
2018-Feb-22 17:28N 40°38' W 074°09'0 0.0
2018-Feb-22 16:58N 40°38' W 074°09'0 0.0
2018-Feb-22 16:22N 40°38' W 074°09'0 0.0
2018-Feb-22 15:58N 40°38' W 074°09'0 0.0
2018-Feb-22 15:28N 40°38' W 074°09'0 0.0
2018-Feb-22 14:58N 40°38' W 074°09'0 0.0
2018-Feb-22 14:25N 40°38' W 074°09'0 0.0
2018-Feb-22 13:58N 40°38' W 074°09'0 0.0
2018-Feb-22 13:22N 40°38' W 074°09'0 0.0
2018-Feb-22 12:55N 40°38' W 074°09'0 0.0
2018-Feb-22 12:25N 40°38' W 074°09'0 0.0
2018-Feb-22 12:00N 40°38' W 074°09'0 0.0
2018-Feb-22 11:30N 40°38' W 074°09'0 0.0
2018-Feb-22 11:00N 40°38' W 074°09'0 0.0
2018-Feb-22 10:30N 40°38' W 074°09'0 0.0
2018-Feb-22 09:59N 40°38' W 074°09'0 0.0
2018-Feb-22 09:29N 40°38' W 074°09'0 0.0
2018-Feb-22 08:59N 40°38' W 074°09'0 0.0
2018-Feb-22 08:26N 40°38' W 074°09'0 0.0
2018-Feb-22 07:59N 40°38' W 074°09'0 0.0
2018-Feb-22 07:29N 40°38' W 074°09'0 0.0
2018-Feb-22 06:59N 40°38' W 074°09'0 0.0
2018-Feb-22 06:29N 40°38' W 074°09'0 0.0
2018-Feb-22 05:56N 40°38' W 074°09'0 0.0
2018-Feb-22 05:26N 40°38' W 074°09'0 0.0
2018-Feb-22 04:59N 40°38' W 074°09'0 0.0
2018-Feb-22 04:26N 40°38' W 074°09'0 0.0
2018-Feb-22 03:59N 40°38' W 074°09'0 0.0
2018-Feb-22 03:26N 40°38' W 074°09'0 0.0
2018-Feb-22 02:59N 40°38' W 074°09'0 0.0
2018-Feb-22 02:29N 40°38' W 074°09'0 0.0
2018-Feb-22 01:59N 40°38' W 074°09'0 0.0
2018-Feb-22 01:29N 40°38' W 074°09'0 0.0
2018-Feb-22 00:59N 40°38' W 074°09'0 0.0
2018-Feb-22 00:26N 40°38' W 074°09'0 0.0
2018-Feb-21 23:59N 40°38' W 074°09'0 0.0
2018-Feb-21 23:26N 40°38' W 074°10'0 0.0
2018-Feb-21 22:59N 40°38' W 074°09'0 0.2
2018-Feb-21 22:29N 40°38' W 074°09'2 4.5
2018-Feb-21 22:00N 40°39' W 074°07'3 5.5
2018-Feb-21 21:30N 40°40' W 074°03'5 9.7
2018-Feb-21 21:00N 40°44' W 074°01'510.6
2018-Feb-21 20:30N 40°49' W 073°58'5 9.8
2018-Feb-21 19:59N 40°54' W 073°55'3 5.1
2018-Feb-21 19:24N 40°57' W 073°55'0 0.0
2018-Feb-21 18:51N 40°57' W 073°55'0 0.1
2018-Feb-21 18:21N 40°57' W 073°55'0 0.1
2018-Feb-21 17:57N 40°57' W 073°55'0 0.0
2018-Feb-21 17:12N 40°57' W 073°55'0 0.1
2018-Feb-21 16:45N 40°57' W 073°55'0 0.1
2018-Feb-21 16:21N 40°57' W 073°55'0 0.0
2018-Feb-21 16:00N 40°57' W 073°55'0 0.1
2018-Feb-21 15:18N 40°57' W 073°55'0 0.5
2018-Feb-21 14:51N 40°56' W 073°55'0 0.1
2018-Feb-21 14:30N 40°56' W 073°55'0 0.0
2018-Feb-21 13:39N 40°56' W 073°55'0 0.0
2018-Feb-21 13:09N 40°56' W 073°55'0 0.0
2018-Feb-21 13:00N 40°56' W 073°55'0 0.0
2018-Feb-21 12:30N 40°56' W 073°55'0 0.0
2018-Feb-21 11:54N 40°56' W 073°55'0 0.0
2018-Feb-21 11:15N 40°56' W 073°55'0 0.0
2018-Feb-21 11:00N 40°56' W 073°55'0 0.0
2018-Feb-21 10:27N 40°56' W 073°55'0 0.0
2018-Feb-21 09:54N 40°56' W 073°55'0 0.0
2018-Feb-21 09:30N 40°56' W 073°55'0 0.0
2018-Feb-21 09:00N 40°56' W 073°55'0 0.3
2018-Feb-21 08:27N 40°57' W 073°55'0 0.1
2018-Feb-21 06:51N 40°57' W 073°55'0 0.0
2018-Feb-21 06:24N 40°57' W 073°55'0 0.1
2018-Feb-21 05:51N 40°57' W 073°55'0 0.0
2018-Feb-21 05:21N 40°57' W 073°55'0 0.0
2018-Feb-21 04:18N 40°57' W 073°55'0 0.0
2018-Feb-21 03:54N 40°57' W 073°55'0 0.1
2018-Feb-21 03:30N 40°57' W 073°55'0 0.1
2018-Feb-21 02:57N 40°57' W 073°55'0 0.3
2018-Feb-21 02:30N 40°56' W 073°55'0 0.1
2018-Feb-21 01:54N 40°56' W 073°55'0 0.0
2018-Feb-21 01:30N 40°56' W 073°55'0 0.0
2018-Feb-21 00:30N 40°56' W 073°55'0 0.0
2018-Feb-20 23:57N 40°56' W 073°55'0 0.0
2018-Feb-20 23:24N 40°56' W 073°55'0 0.0
2018-Feb-20 22:48N 40°56' W 073°55'0 0.0
2018-Feb-20 22:27N 40°56' W 073°55'0 0.0
2018-Feb-20 21:54N 40°56' W 073°55'0 0.0
2018-Feb-20 21:27N 40°56' W 073°55'0 0.0
2018-Feb-20 20:54N 40°56' W 073°55'0 0.2
2018-Feb-20 20:24N 40°57' W 073°55'0 0.2
2018-Feb-20 20:00N 40°57' W 073°55'0 0.1
2018-Feb-20 19:27N 40°57' W 073°55'0 0.0
2018-Feb-20 18:57N 40°57' W 073°55'0 0.0
2018-Feb-20 17:54N 40°57' W 073°55'0 0.1
2018-Feb-20 17:15N 40°57' W 073°55'0 0.0
2018-Feb-20 15:39N 40°57' W 073°55'0 0.1
2018-Feb-20 14:15N 40°57' W 073°55'0 0.1
2018-Feb-20 11:42N 40°56' W 073°55'0 0.0
2018-Feb-20 11:30N 40°56' W 073°55'0 0.0
2018-Feb-20 10:51N 40°56' W 073°55'0 0.0
2018-Feb-20 09:54N 40°56' W 073°55'0 0.0
2018-Feb-20 09:30N 40°56' W 073°55'0 0.0
2018-Feb-20 09:00N 40°56' W 073°55'0 0.0
2018-Feb-20 08:18N 40°56' W 073°55'0 0.0
2018-Feb-20 08:00N 40°56' W 073°55'0 0.0
2018-Feb-20 02:39N 40°57' W 073°55'0 0.3
2018-Feb-20 02:15N 40°56' W 073°55'0 0.1
2018-Feb-20 02:00N 40°56' W 073°55'0 0.1
2018-Feb-20 01:24N 40°56' W 073°55'0 0.0
2018-Feb-20 00:48N 40°56' W 073°55'0 0.0
2018-Feb-20 00:30N 40°56' W 073°55'0 0.0
2018-Feb-20 00:00N 40°56' W 073°55'0 0.0
2018-Feb-19 23:30N 40°56' W 073°55'0 0.0
2018-Feb-19 23:00N 40°56' W 073°55'0 0.0
2018-Feb-19 22:12N 40°56' W 073°55'0 0.0
2018-Feb-19 21:25N 40°56' W 073°55'0 0.0
2018-Feb-19 20:58N 40°56' W 073°55'0 0.0
2018-Feb-19 20:25N 40°56' W 073°55'0 0.0
2018-Feb-19 19:58N 40°56' W 073°55'0 0.3
2018-Feb-19 18:58N 40°57' W 073°55'0 0.0
2018-Feb-19 16:55N 40°57' W 073°55'0 0.1
2018-Feb-19 16:28N 40°57' W 073°55'0 0.0
2018-Feb-19 15:58N 40°57' W 073°55'0 0.0
2018-Feb-19 14:07N 40°57' W 073°55'0 0.4
2018-Feb-19 13:49N 40°57' W 073°55'0 0.2
2018-Feb-19 13:22N 40°56' W 073°55'0 0.1
2018-Feb-19 12:58N 40°56' W 073°55'0 0.0
2018-Feb-19 12:28N 40°56' W 073°55'0 0.0
2018-Feb-19 11:52N 40°56' W 073°55'0 0.0
2018-Feb-19 11:28N 40°56' W 073°55'0 0.0
2018-Feb-19 10:58N 40°56' W 073°55'0 0.0
2018-Feb-19 10:28N 40°56' W 073°55'0 0.0
2018-Feb-19 09:55N 40°56' W 073°55'0 0.0
2018-Feb-19 09:28N 40°56' W 073°55'0 0.0
2018-Feb-19 08:58N 40°56' W 073°55'0 0.0
2018-Feb-19 08:25N 40°56' W 073°55'0 0.0
2018-Feb-19 07:58N 40°56' W 073°55'0 0.2
2018-Feb-19 07:26N 40°57' W 073°55'0 0.3
2018-Feb-19 06:59N 40°57' W 073°55'0 0.1
2018-Feb-19 06:17N 40°57' W 073°55'0 0.0
2018-Feb-19 05:53N 40°57' W 073°55'0 0.0
2018-Feb-19 05:29N 40°57' W 073°55'0 0.0
2018-Feb-19 04:59N 40°57' W 073°55'0 0.0
2018-Feb-19 04:11N 40°57' W 073°55'0 0.0
2018-Feb-19 03:59N 40°57' W 073°55'0 0.0
2018-Feb-19 02:53N 40°57' W 073°55'0 0.0
2018-Feb-19 01:53N 40°57' W 073°55'0 0.0
2018-Feb-19 01:29N 40°57' W 073°55'0 0.2
2018-Feb-19 00:59N 40°57' W 073°55'0 0.2
2018-Feb-19 00:29N 40°56' W 073°55'0 0.1
2018-Feb-18 23:56N 40°56' W 073°55'0 0.0
2018-Feb-18 23:29N 40°56' W 073°55'0 0.0
2018-Feb-18 22:56N 40°56' W 073°55'0 0.0
2018-Feb-18 22:29N 40°56' W 073°55'0 0.0
2018-Feb-18 21:59N 40°56' W 073°55'0 0.0
2018-Feb-18 21:29N 40°56' W 073°55'0 0.0
2018-Feb-18 20:59N 40°56' W 073°55'0 0.0
2018-Feb-18 20:26N 40°56' W 073°55'0 0.0
2018-Feb-18 20:00N 40°56' W 073°55'0 0.0
2018-Feb-18 19:30N 40°56' W 073°55'0 0.0
2018-Feb-18 18:57N 40°56' W 073°55'0 0.0
2018-Feb-18 18:28N 40°56' W 073°55'0 0.1
2018-Feb-18 17:56N 40°56' W 073°55'0 0.2
2018-Feb-18 17:26N 40°57' W 073°55'0 0.1
2018-Feb-18 16:59N 40°57' W 073°55'0 0.1
2018-Feb-18 16:25N 40°57' W 073°55'0 0.0
2018-Feb-18 15:52N 40°57' W 073°55'0 0.0
2018-Feb-18 15:28N 40°57' W 073°55'0 0.3
2018-Feb-18 14:58N 40°56' W 073°55'0 0.1
2018-Feb-18 14:25N 40°56' W 073°55'0 0.2
2018-Feb-18 13:58N 40°56' W 073°55'0 0.2
2018-Feb-18 13:28N 40°56' W 073°55'0 0.1
2018-Feb-18 12:43N 40°56' W 073°55'0 0.1
2018-Feb-18 12:25N 40°56' W 073°55'0 0.0
2018-Feb-18 11:58N 40°56' W 073°55'0 0.0
2018-Feb-18 11:19N 40°56' W 073°55'0 0.0
2018-Feb-18 10:55N 40°56' W 073°55'0 0.0
2018-Feb-18 10:28N 40°56' W 073°55'0 0.0
2018-Feb-18 09:58N 40°56' W 073°55'0 0.0
2018-Feb-18 09:28N 40°56' W 073°55'0 0.0
2018-Feb-18 08:58N 40°56' W 073°55'0 0.0
2018-Feb-18 08:28N 40°56' W 073°55'0 0.0
2018-Feb-18 07:52N 40°56' W 073°55'0 0.0
2018-Feb-18 07:28N 40°56' W 073°55'0 0.0
2018-Feb-18 06:58N 40°56' W 073°55'0 0.1
2018-Feb-18 06:25N 40°56' W 073°55'0 0.2
2018-Feb-18 05:58N 40°56' W 073°55'0 0.2
2018-Feb-18 05:19N 40°57' W 073°55'0 0.2
2018-Feb-18 04:58N 40°57' W 073°55'0 0.0
2018-Feb-18 04:16N 40°57' W 073°55'0 0.0
2018-Feb-18 03:46N 40°57' W 073°55'0 0.0
2018-Feb-18 03:28N 40°57' W 073°55'0 0.0
2018-Feb-18 02:52N 40°57' W 073°55'0 0.0
2018-Feb-18 02:28N 40°57' W 073°55'0 0.0
2018-Feb-18 01:58N 40°57' W 073°55'0 0.2
2018-Feb-18 01:28N 40°57' W 073°55'0 0.0
2018-Feb-18 00:58N 40°57' W 073°55'0 0.1
2018-Feb-17 23:31N 40°56' W 073°55'0 0.2
2018-Feb-17 23:28N 40°56' W 073°55'0 0.1
2018-Feb-17 22:58N 40°56' W 073°55'0 0.0
2018-Feb-17 22:28N 40°56' W 073°55'0 0.0
2018-Feb-17 21:58N 40°56' W 073°55'0 0.0
2018-Feb-17 21:28N 40°56' W 073°55'0 0.1
2018-Feb-17 20:58N 40°56' W 073°55'0 0.1
2018-Feb-17 20:28N 40°56' W 073°55'0 0.1
2018-Feb-17 19:58N 40°56' W 073°55'0 0.2
2018-Feb-17 19:22N 40°57' W 073°55'0 0.0
2018-Feb-17 16:55N 40°57' W 073°55'0 0.0
2018-Feb-17 14:19N 40°57' W 073°55'0 0.0
2018-Feb-17 13:58N 40°57' W 073°55'0 0.1
2018-Feb-17 13:25N 40°57' W 073°55'0 0.2
2018-Feb-17 12:52N 40°57' W 073°55'0 0.1
2018-Feb-17 12:13N 40°57' W 073°55'0 0.2
2018-Feb-17 11:58N 40°57' W 073°55'0 0.1
2018-Feb-17 11:19N 40°56' W 073°55'0 0.2
2018-Feb-17 10:58N 40°56' W 073°55'0 0.1
2018-Feb-17 10:28N 40°56' W 073°55'0 0.0
2018-Feb-17 09:52N 40°56' W 073°55'0 0.0
2018-Feb-17 09:28N 40°56' W 073°55'0 0.0
2018-Feb-17 08:58N 40°56' W 073°55'0 0.0
2018-Feb-17 08:28N 40°56' W 073°55'0 0.0
2018-Feb-17 07:58N 40°56' W 073°55'0 0.0
2018-Feb-17 07:25N 40°56' W 073°55'0 0.0
2018-Feb-17 06:55N 40°56' W 073°55'0 0.0
2018-Feb-17 06:25N 40°56' W 073°55'0 0.0
2018-Feb-17 05:58N 40°56' W 073°55'0 0.1
2018-Feb-17 05:25N 40°56' W 073°55'0 0.1
2018-Feb-17 04:55N 40°56' W 073°55'0 0.2
2018-Feb-17 04:28N 40°56' W 073°55'0 0.1
2018-Feb-17 03:58N 40°56' W 073°55'0 0.2
2018-Feb-17 03:28N 40°57' W 073°55'0 0.0
2018-Feb-17 02:58N 40°57' W 073°55'0 0.2
2018-Feb-17 02:28N 40°56' W 073°55'0 0.1
2018-Feb-17 01:55N 40°56' W 073°55'0 0.0
2018-Feb-17 01:25N 40°56' W 073°55'0 0.1
2018-Feb-17 00:55N 40°56' W 073°55'0 0.1
2018-Feb-17 00:28N 40°56' W 073°55'0 0.0
2018-Feb-16 23:49N 40°56' W 073°55'0 0.0
2018-Feb-16 23:16N 40°56' W 073°55'0 0.1
2018-Feb-16 22:55N 40°56' W 073°55'0 0.0
2018-Feb-16 22:25N 40°56' W 073°55'0 0.0
2018-Feb-16 21:55N 40°56' W 073°55'0 0.0
2018-Feb-16 21:22N 40°56' W 073°55'0 0.1
2018-Feb-16 20:55N 40°56' W 073°55'0 0.0
2018-Feb-16 20:28N 40°56' W 073°55'0 0.0
2018-Feb-16 19:55N 40°56' W 073°55'0 0.0
2018-Feb-16 19:28N 40°56' W 073°55'0 0.1
2018-Feb-16 18:55N 40°56' W 073°55'0 0.0
2018-Feb-16 18:22N 40°56' W 073°55'0 0.1
2018-Feb-16 17:58N 40°56' W 073°55'0 0.4
2018-Feb-16 17:22N 40°57' W 073°55'0 0.1
2018-Feb-16 16:58N 40°57' W 073°55'0 0.0
2018-Feb-16 13:52N 40°57' W 073°55'0 0.0
2018-Feb-16 13:28N 40°57' W 073°55'0 0.1
2018-Feb-16 11:22N 40°56' W 073°55'0 0.0
2018-Feb-16 10:55N 40°56' W 073°55'0 0.0
2018-Feb-16 10:28N 40°56' W 073°55'0 0.0
2018-Feb-16 09:58N 40°56' W 073°55'0 0.0
2018-Feb-16 09:28N 40°56' W 073°55'0 0.0
2018-Feb-16 08:58N 40°56' W 073°55'0 0.0
2018-Feb-16 08:28N 40°56' W 073°55'0 0.0
2018-Feb-16 07:55N 40°56' W 073°55'0 0.0
2018-Feb-16 07:28N 40°56' W 073°55'0 0.1
2018-Feb-16 06:55N 40°56' W 073°55'0 0.0
2018-Feb-16 06:25N 40°56' W 073°55'0 0.0
2018-Feb-16 05:58N 40°56' W 073°55'0 0.2
2018-Feb-16 05:25N 40°57' W 073°55'0 0.2
2018-Feb-16 04:46N 40°57' W 073°55'0 0.1
2018-Feb-16 04:28N 40°57' W 073°55'0 0.0
2018-Feb-16 03:58N 40°57' W 073°55'0 0.0
2018-Feb-16 03:22N 40°57' W 073°55'0 0.0
2018-Feb-16 02:58N 40°57' W 073°55'0 0.0
2018-Feb-16 02:25N 40°57' W 073°55'0 0.0
2018-Feb-16 01:58N 40°57' W 073°55'0 0.0
2018-Feb-16 01:13N 40°57' W 073°55'0 0.1
2018-Feb-16 00:49N 40°57' W 073°55'0 0.5
2018-Feb-16 00:28N 40°56' W 073°55'0 0.1
2018-Feb-15 23:58N 40°56' W 073°55'0 0.0
2018-Feb-15 23:10N 40°56' W 073°55'0 0.1
2018-Feb-15 22:58N 40°56' W 073°55'0 0.0
2018-Feb-15 22:28N 40°56' W 073°55'0 0.0
2018-Feb-15 21:58N 40°56' W 073°55'0 0.0
2018-Feb-15 21:28N 40°56' W 073°55'0 0.0
2018-Feb-15 20:58N 40°56' W 073°55'0 0.0
2018-Feb-15 20:28N 40°56' W 073°55'0 0.0
2018-Feb-15 19:58N 40°56' W 073°55'0 0.0
2018-Feb-15 19:28N 40°56' W 073°55'0 0.0
2018-Feb-15 18:58N 40°56' W 073°55'0 0.0
2018-Feb-15 18:16N 40°56' W 073°55'0 0.1
2018-Feb-15 17:55N 40°56' W 073°55'0 0.1
2018-Feb-15 17:28N 40°56' W 073°55'0 0.1
2018-Feb-15 16:10N 40°57' W 073°55'0 0.0
2018-Feb-15 15:52N 40°57' W 073°55'0 0.0
2018-Feb-15 12:16N 40°57' W 073°55'0 0.0
2018-Feb-15 11:46N 40°57' W 073°55'0 0.3
2018-Feb-15 11:13N 40°57' W 073°55'0 0.2
2018-Feb-15 10:55N 40°56' W 073°55'0 0.1
2018-Feb-15 10:25N 40°56' W 073°55'0 0.0
2018-Feb-15 09:58N 40°56' W 073°55'0 0.0
2018-Feb-15 09:25N 40°56' W 073°55'0 0.0
2018-Feb-15 08:55N 40°56' W 073°55'0 0.0
2018-Feb-15 08:25N 40°56' W 073°55'0 0.0
2018-Feb-15 07:55N 40°56' W 073°55'0 0.0
2018-Feb-15 07:25N 40°56' W 073°55'0 0.0
2018-Feb-15 06:55N 40°56' W 073°55'0 0.0
2018-Feb-15 06:13N 40°56' W 073°55'0 0.1
2018-Feb-15 05:46N 40°56' W 073°55'0 0.1
2018-Feb-15 05:22N 40°56' W 073°55'0 0.2
2018-Feb-15 04:55N 40°57' W 073°55'0 0.2
2018-Feb-15 04:13N 40°57' W 073°55'0 0.1
2018-Feb-15 03:55N 40°57' W 073°55'0 0.0
2018-Feb-15 03:25N 40°57' W 073°55'0 0.0
2018-Feb-15 01:01N 40°57' W 073°55'0 0.0
2018-Feb-15 00:37N 40°57' W 073°55'0 0.0
2018-Feb-15 00:28N 40°57' W 073°55'0 0.3
2018-Feb-14 23:55N 40°57' W 073°55'0 0.2
2018-Feb-14 23:22N 40°56' W 073°55'0 0.1
2018-Feb-14 22:46N 40°56' W 073°55'0 0.0
2018-Feb-14 22:16N 40°56' W 073°55'0 0.0
2018-Feb-14 21:52N 40°56' W 073°55'0 0.0
2018-Feb-14 21:28N 40°56' W 073°55'0 0.0
2018-Feb-14 20:55N 40°56' W 073°55'0 0.0
2018-Feb-14 20:28N 40°56' W 073°55'0 0.0
2018-Feb-14 19:52N 40°56' W 073°55'0 0.0
2018-Feb-14 19:28N 40°56' W 073°55'0 0.1
2018-Feb-14 18:54N 40°56' W 073°55'3 6.9
2018-Feb-14 18:30N 40°54' W 073°55'4 8.3
2018-Feb-14 18:00N 40°50' W 073°58'1 2.0
2018-Feb-14 17:29N 40°49' W 073°58'0 0.1
2018-Feb-14 16:59N 40°49' W 073°58'0 0.2
2018-Feb-14 16:29N 40°49' W 073°58'0 0.2
2018-Feb-14 15:59N 40°49' W 073°58'0 0.1
2018-Feb-14 15:29N 40°49' W 073°58'0 0.0
2018-Feb-14 14:59N 40°49' W 073°58'0 0.0
2018-Feb-14 14:26N 40°49' W 073°58'0 0.0
2018-Feb-14 13:59N 40°49' W 073°58'0 0.0
2018-Feb-14 13:29N 40°49' W 073°58'0 0.0
2018-Feb-14 12:59N 40°49' W 073°58'0 0.1
2018-Feb-14 12:29N 40°49' W 073°58'0 0.0
2018-Feb-14 11:59N 40°49' W 073°58'0 0.0
2018-Feb-14 11:26N 40°49' W 073°58'0 0.0
2018-Feb-14 10:59N 40°49' W 073°58'0 0.0
2018-Feb-14 10:29N 40°49' W 073°58'0 0.3
2018-Feb-14 09:59N 40°49' W 073°58'0 0.1
2018-Feb-14 09:29N 40°49' W 073°58'0 0.0
2018-Feb-14 08:59N 40°49' W 073°58'0 0.0
2018-Feb-14 08:29N 40°49' W 073°58'0 0.0
2018-Feb-14 07:59N 40°49' W 073°58'0 0.0
2018-Feb-14 07:29N 40°49' W 073°58'0 0.0
2018-Feb-14 06:59N 40°49' W 073°58'0 0.0
2018-Feb-14 06:29N 40°49' W 073°58'0 0.0
2018-Feb-14 05:59N 40°49' W 073°58'0 0.1
2018-Feb-14 05:29N 40°49' W 073°58'0 0.1
2018-Feb-14 04:59N 40°49' W 073°58'0 0.0
2018-Feb-14 04:29N 40°49' W 073°58'0 0.0
2018-Feb-14 03:59N 40°49' W 073°58'0 0.3
2018-Feb-14 03:30N 40°49' W 073°58'3 6.7
2018-Feb-14 03:00N 40°46' W 074°00'4 7.8
2018-Feb-14 02:30N 40°42' W 074°00'5 8.9
2018-Feb-14 02:00N 40°46' W 073°57'4 7.9
2018-Feb-14 01:30N 40°48' W 073°53'4 7.8
2018-Feb-14 01:00N 40°48' W 073°47'610.9
2018-Feb-14 00:30N 40°53' W 073°44'41 3.6
2018-Feb-13 13:08N 41°12' W 072°55'  

Dump ship's entire track history